Time;durP1;ratioP1;P1;durP2;ratioP2;P2;SDS_P1;SDS_P2;PMS_P1;PMS_P2;Temp;Humidity;BMP_temperature;BMP_pressure;BME280_temperature;BME280_humidity;BME280_pressure;Samples;Min_cycle;Max_cycle;Signal;HPM_P1;HPM_P2
2022/07/27 00:03:34;;;;;;;5.97;3.40;;;;;;;18.68;75.91;100390.14;3587192;81;99187;-82
2022/07/27 00:08:35;;;;;;;5.67;3.37;;;;;;;18.68;76.15;100383.17;3588694;81;99189;-82
2022/07/27 00:13:36;;;;;;;7.85;3.40;;;;;;;18.71;76.35;100382.31;3588994;82;32955;-82
2022/07/27 00:18:38;;;;;;;8.37;3.40;;;;;;;18.72;76.42;100372.73;3569363;81;99103;-82
2022/07/27 00:23:40;;;;;;;8.27;3.40;;;;;;;18.75;76.68;100371.88;3547974;83;98747;-81
2022/07/27 00:28:41;;;;;;;9.48;3.42;;;;;;;18.76;76.49;100377.03;3541994;82;98870;-81
2022/07/27 00:33:42;;;;;;;6.80;2.97;;;;;;;18.75;76.33;100382.40;3539804;82;99630;-81
2022/07/27 00:38:43;;;;;;;3.80;2.37;;;;;;;18.72;76.47;100381.09;3519714;82;99166;-81
2022/07/27 00:43:54;;;;;;;8.60;2.60;;;;;;;18.71;76.28;100385.11;3532747;82;25901;-81
2022/07/27 00:48:56;;;;;;;4.75;2.83;;;;;;;18.67;76.49;100397.73;3548193;82;99189;-82
2022/07/27 00:53:58;;;;;;;7.13;2.77;;;;;;;18.66;76.47;100389.20;3551874;82;99083;-82
2022/07/27 00:58:59;;;;;;;4.97;2.58;;;;;;;18.66;76.54;100395.38;3522656;82;99009;-81
2022/07/27 01:04:00;;;;;;;5.50;2.40;;;;;;;18.66;76.54;100395.38;3547584;82;98917;-81
2022/07/27 01:14:21;;;;;;;4.78;2.37;;;;;;;18.62;76.54;100389.08;3549079;82;98887;-82
2022/07/27 01:19:22;;;;;;;3.47;2.20;;;;;;;18.56;76.20;100383.25;3544179;82;98609;-82
2022/07/27 01:24:23;;;;;;;5.00;2.42;;;;;;;18.49;76.01;100380.63;3589054;81;98672;-82
2022/07/27 01:29:24;;;;;;;6.47;2.63;;;;;;;18.45;76.27;100385.48;3595759;81;99031;-82
2022/07/27 01:34:25;;;;;;;5.77;2.80;;;;;;;18.43;76.20;100382.32;3589621;81;99257;-82
2022/07/27 01:39:27;;;;;;;5.43;2.60;;;;;;;18.42;76.38;100384.94;3584749;81;99072;-82
2022/07/27 01:44:28;;;;;;;5.20;2.77;;;;;;;18.40;76.66;100377.62;3598357;81;99019;-82
2022/07/27 01:49:29;;;;;;;7.47;2.83;;;;;;;18.41;76.79;100374.21;3584897;81;98835;-82
2022/07/27 01:54:30;;;;;;;5.63;2.47;;;;;;;18.42;76.74;100388.34;3584970;81;98728;-82
2022/07/27 01:59:31;;;;;;;5.20;2.97;;;;;;;18.41;76.70;100386.75;3552478;82;98864;-82
2022/07/27 02:04:32;;;;;;;7.60;2.80;;;;;;;18.38;76.72;100389.02;3606315;81;98810;-82
2022/07/27 02:09:33;;;;;;;6.23;2.87;;;;;;;18.36;76.85;100398.44;3572678;81;99155;-82
2022/07/27 02:14:34;;;;;;;3.97;2.20;;;;;;;18.37;76.75;100401.39;3601396;81;99296;-82
2022/07/27 02:19:35;;;;;;;5.60;2.53;;;;;;;18.36;76.75;100404.00;3595993;81;98995;-82
2022/07/27 02:24:36;;;;;;;5.55;2.20;;;;;;;18.33;76.66;100401.47;3555060;82;99119;-82
2022/07/27 02:29:37;;;;;;;4.90;2.27;;;;;;;18.32;76.75;100401.89;3517433;83;98724;-82
2022/07/27 02:34:38;;;;;;;5.00;2.08;;;;;;;18.32;76.44;100393.53;3524666;82;98799;-82
2022/07/27 02:39:40;;;;;;;8.30;1.70;;;;;;;18.30;76.50;100398.70;3560016;82;98956;-81
2022/07/27 02:44:41;;;;;;;23.90;2.22;;;;;;;18.27;76.50;100400.38;3566295;82;98886;-82
2022/07/27 02:49:42;;;;;;;6.97;2.70;;;;;;;18.24;76.37;100413.75;3526287;82;99151;-82
2022/07/27 02:54:43;;;;;;;5.28;2.00;;;;;;;18.20;76.54;100422.78;3536763;82;99034;-81
2022/07/27 02:59:44;;;;;;;5.78;2.12;;;;;;;18.18;76.47;100423.03;3554350;82;99144;-82
2022/07/27 03:04:45;;;;;;;5.12;2.40;;;;;;;18.14;76.54;100423.11;3557156;82;98846;-82
2022/07/27 03:09:46;;;;;;;5.60;2.05;;;;;;;18.12;76.39;100428.92;3540451;82;98862;-82
2022/07/27 03:14:47;;;;;;;8.25;1.85;;;;;;;18.06;75.96;100438.40;3522386;82;98817;-82
2022/07/27 03:19:48;;;;;;;7.22;1.90;;;;;;;18.03;75.87;100439.86;3548253;82;98968;-82
2022/07/27 03:24:49;;;;;;;5.83;1.70;;;;;;;18.01;75.92;100447.24;3594280;81;98635;-82
2022/07/27 03:29:50;;;;;;;8.17;2.00;;;;;;;17.98;75.64;100441.74;3566960;81;98646;-81
2022/07/27 03:34:51;;;;;;;5.25;1.77;;;;;;;17.97;75.53;100440.95;3576380;81;98873;-82
2022/07/27 03:39:53;;;;;;;9.53;1.60;;;;;;;17.95;75.57;100432.84;3598964;81;98817;-82
2022/07/27 03:44:54;;;;;;;5.03;1.80;;;;;;;17.95;75.37;100441.19;3586805;81;99226;-82
2022/07/27 03:49:55;;;;;;;7.15;1.87;;;;;;;17.93;75.26;100445.78;3584391;81;98358;-82
2022/07/27 03:54:56;;;;;;;6.87;1.92;;;;;;;17.92;75.14;100442.83;3589179;81;98567;-82
2022/07/27 03:59:57;;;;;;;9.95;2.30;;;;;;;17.93;75.03;100447.17;3584130;82;98806;-81
2022/07/27 04:04:58;;;;;;;9.78;2.27;;;;;;;17.93;74.99;100444.39;3589389;81;98854;-82
2022/07/27 04:09:59;;;;;;;10.15;1.98;;;;;;;17.94;74.72;100436.22;3581414;82;98568;-82
2022/07/27 04:15:00;;;;;;;4.70;1.50;;;;;;;17.94;74.67;100429.25;3590981;81;99369;-82
2022/07/27 04:20:01;;;;;;;8.28;2.22;;;;;;;17.94;74.63;100427.09;3580637;81;99155;-82
2022/07/27 04:25:03;;;;;;;8.05;2.12;;;;;;;17.95;74.64;100433.64;3581770;81;32031;-81
2022/07/27 04:30:05;;;;;;;9.38;2.25;;;;;;;17.95;74.52;100433.64;3565667;81;99183;-81
2022/07/27 04:35:07;;;;;;;7.77;1.70;;;;;;;17.95;74.44;100439.80;3571358;81;99503;-82
2022/07/27 04:40:10;;;;;;;8.70;2.47;;;;;;;17.94;74.40;100436.84;3558624;81;98793;-81
2022/07/27 04:45:11;;;;;;;8.15;1.85;;;;;;;17.93;74.30;100434.65;3573206;81;99265;-82
2022/07/27 04:50:12;;;;;;;8.08;1.90;;;;;;;17.94;73.95;100440.39;3569472;82;98729;-82
2022/07/27 04:55:14;;;;;;;9.23;1.90;;;;;;;17.95;73.48;100443.38;3579673;81;33528;-82
2022/07/27 05:00:15;;;;;;;8.20;1.85;;;;;;;17.93;72.90;100438.06;3567339;81;98626;-81
2022/07/27 05:05:17;;;;;;;5.70;1.57;;;;;;;17.91;72.00;100435.69;3561118;81;98869;-81
2022/07/27 05:10:18;;;;;;;9.40;1.82;;;;;;;17.90;72.16;100440.29;3498300;83;98614;-82
2022/07/27 05:15:20;;;;;;;7.67;1.80;;;;;;;17.96;72.12;100440.77;3517170;83;99169;-82
2022/07/27 05:20:21;;;;;;;6.65;1.72;;;;;;;18.05;71.56;100454.91;3521425;83;99152;-82
2022/07/27 05:25:26;;;;;;;7.33;1.92;;;;;;;18.08;70.98;100454.06;3482220;83;34929;-82
2022/07/27 05:30:25;;;;;;;9.88;1.90;;;;;;;18.18;70.87;100457.25;3478740;83;98768;-83
2022/07/27 05:35:26;;;;;;;7.78;1.65;;;;;;;18.35;70.11;100472.07;3490348;83;98770;-82
2022/07/27 05:40:27;;;;;;;9.35;1.77;;;;;;;18.52;68.72;100475.91;3475888;83;98463;-82
2022/07/27 05:45:29;;;;;;;13.22;2.12;;;;;;;18.73;68.51;100478.25;3499591;83;99181;-81
2022/07/27 05:50:30;;;;;;;10.93;2.22;;;;;;;19.07;68.01;100491.87;3503248;83;99342;-81
2022/07/27 05:55:32;;;;;;;6.40;1.92;;;;;;;19.42;67.61;100500.23;3499647;83;32956;-82
2022/07/27 06:00:33;;;;;;;9.70;1.82;;;;;;;19.83;66.98;100506.61;3496843;83;98827;-84
2022/07/27 06:05:34;;;;;;;6.08;1.52;;;;;;;20.03;63.73;100508.06;3505965;83;98339;-83
2022/07/27 06:10:39;;;;;;;8.85;2.15;;;;;;;19.91;63.66;100516.38;3503579;83;98832;-87
2022/07/27 06:15:40;;;;;;;8.85;1.82;;;;;;;20.10;63.92;100519.71;3509975;83;99237;-86
2022/07/27 06:20:42;;;;;;;8.03;1.70;;;;;;;20.12;63.24;100515.22;3500345;83;99142;-87
2022/07/27 06:25:43;;;;;;;7.75;2.05;;;;;;;20.32;63.19;100520.09;3530183;82;30103;-87
2022/07/27 06:30:45;;;;;;;12.78;2.27;;;;;;;20.50;62.58;100518.98;3485797;83;98717;-87
2022/07/27 06:35:46;;;;;;;5.90;1.37;;;;;;;20.69;61.86;100518.05;3543865;82;98884;-86
2022/07/27 06:40:51;;;;;;;8.20;1.40;;;;;;;20.95;61.20;100530.91;3437673;84;98721;-89
2022/07/27 06:45:52;;;;;;;6.03;1.50;;;;;;;21.06;57.87;100520.78;3540553;83;98899;-87
2022/07/27 06:50:54;;;;;;;6.40;1.47;;;;;;;20.96;57.83;100517.08;3496954;82;98916;-85
2022/07/27 06:55:57;;;;;;;6.40;1.50;;;;;;;20.96;57.83;100517.08;3516309;82;34830;-87
2022/07/27 07:01:00;;;;;;;9.00;2.35;;;;;;;21.03;57.94;100521.69;3512882;82;98850;-86
2022/07/27 07:06:01;;;;;;;5.90;1.57;;;;;;;21.17;58.11;100518.45;3507036;82;99054;-89
2022/07/27 07:11:02;;;;;;;7.33;1.40;;;;;;;21.31;56.39;100514.59;3508362;82;99419;-87
2022/07/27 07:16:04;;;;;;;9.28;1.50;;;;;;;21.24;56.23;100509.82;3542105;82;98833;-88
2022/07/27 07:21:05;;;;;;;17.75;1.95;;;;;;;21.31;55.29;100518.79;3510034;82;98912;-87
2022/07/27 07:26:06;;;;;;;3.75;1.02;;;;;;;21.12;54.74;100519.00;3543077;82;98973;-87
2022/07/27 07:31:08;;;;;;;5.05;1.87;;;;;;;21.30;55.74;100523.45;3538558;82;98356;-87
2022/07/27 07:36:09;;;;;;;9.35;1.35;;;;;;;21.25;54.91;100517.78;3462249;84;98977;-84
2022/07/27 07:41:12;;;;;;;3.98;1.10;;;;;;;21.29;54.57;100518.46;3451637;84;98929;-85
2022/07/27 07:46:13;;;;;;;4.05;0.98;;;;;;;21.36;54.23;100523.06;3511804;82;99230;-86
2022/07/27 07:51:14;;;;;;;5.45;1.10;;;;;;;21.38;53.99;100524.19;3534705;82;98856;-86
2022/07/27 07:56:15;;;;;;;4.97;1.15;;;;;;;21.45;52.43;100522.55;3540778;83;99220;-87
2022/07/27 08:01:16;;;;;;;6.28;1.42;;;;;;;21.40;52.53;100532.12;3516787;82;98318;-86
2022/07/27 08:06:18;;;;;;;4.05;1.05;;;;;;;21.14;50.15;100538.31;3516613;83;98628;-87
2022/07/27 08:11:20;;;;;;;5.45;1.10;;;;;;;20.95;50.51;100528.11;3523063;83;98794;-86
2022/07/27 08:16:20;;;;;;;9.58;1.47;;;;;;;21.20;50.59;100526.73;3538639;82;98425;-87
2022/07/27 08:21:22;;;;;;;6.33;1.45;;;;;;;21.57;49.94;100526.59;3529384;83;98918;-87
2022/07/27 08:26:23;;;;;;;5.87;1.10;;;;;;;22.38;50.65;100527.43;3474008;83;98677;-88
2022/07/27 08:31:24;;;;;;;5.65;1.30;;;;;;;22.86;48.09;100517.88;3464474;83;98365;-87
2022/07/27 08:36:25;;;;;;;4.90;0.88;;;;;;;23.60;48.87;100526.99;3471395;83;98767;-85
2022/07/27 08:41:28;;;;;;;6.33;1.35;;;;;;;24.78;48.46;100523.12;3467240;83;99098;-86
2022/07/27 08:46:31;;;;;;;6.65;1.10;;;;;;;25.97;46.89;100524.45;3472112;83;99700;-84
2022/07/27 08:51:33;;;;;;;5.42;1.05;;;;;;;26.72;44.43;100530.64;3452717;84;98975;-84
2022/07/27 08:56:34;;;;;;;5.08;0.80;;;;;;;27.39;42.83;100522.88;3474043;82;99328;-83
2022/07/27 09:01:35;;;;;;;6.95;0.95;;;;;;;27.68;41.42;100524.87;3476895;85;34831;-85
2022/07/27 09:06:46;;;;;;;3.50;0.65;;;;;;;28.54;40.89;100530.05;3479985;83;98849;-89
2022/07/27 09:12:08;;;;;;;4.30;0.98;;;;;;;28.75;38.72;100530.16;3473518;85;98667;-85
2022/07/27 09:17:23;;;;;;;4.80;1.10;;;;;;;28.97;38.16;100524.13;3470386;83;99211;-87
2022/07/27 09:22:55;;;;;;;4.05;1.10;;;;;;;29.00;37.40;100525.97;3478774;83;98457;-87
2022/07/27 09:27:58;;;;;;;5.47;1.00;;;;;;;29.37;36.73;100525.37;3431997;84;99267;-85
2022/07/27 09:33:05;;;;;;;4.03;1.00;;;;;;;29.99;37.75;100507.50;3454628;84;99380;-88
2022/07/27 09:38:23;;;;;;;4.37;0.88;;;;;;;30.61;35.55;100535.03;3441105;84;98953;-86
2022/07/27 09:43:25;;;;;;;3.83;0.80;;;;;;;30.45;33.47;100517.28;3451810;84;26227;-88
2022/07/27 09:48:26;;;;;;;2.98;0.72;;;;;;;29.84;32.42;100512.57;3451279;84;98731;-85
2022/07/27 09:53:34;;;;;;;5.45;1.17;;;;;;;29.72;33.36;100520.88;3448036;84;99107;-87
2022/07/27 09:58:48;;;;;;;4.15;0.95;;;;;;;30.12;33.74;100511.47;3446772;84;98944;-86
2022/07/27 10:03:57;;;;;;;4.08;1.25;;;;;;;30.16;32.89;100513.44;3462498;84;99320;-88
2022/07/27 10:08:59;;;;;;;6.08;1.17;;;;;;;30.37;32.34;100515.45;3449218;84;99417;-86
2022/07/27 10:14:00;;;;;;;5.05;1.30;;;;;;;29.99;32.29;100524.53;3452622;84;25853;-86
2022/07/27 10:19:21;;;;;;;6.17;1.22;;;;;;;29.85;32.36;100518.41;3455664;84;98695;-82
2022/07/27 10:24:35;;;;;;;4.17;1.02;;;;;;;30.21;33.20;100522.63;3460996;84;99172;-85
2022/07/27 10:29:37;;;;;;;4.12;1.00;;;;;;;30.56;31.80;100527.27;3531886;82;99426;-86
2022/07/27 10:34:41;;;;;;;5.28;1.30;;;;;;;30.77;30.38;100521.53;3536489;83;98795;-85
2022/07/27 10:39:47;;;;;;;3.85;1.25;;;;;;;31.35;32.68;100531.98;3531936;82;98778;-86
2022/07/27 10:45:07;;;;;;;4.58;1.10;;;;;;;31.95;31.37;100534.63;3449724;84;99241;-86
2022/07/27 10:50:28;;;;;;;4.35;1.02;;;;;;;32.07;31.44;100526.97;3539856;82;99187;-86
2022/07/27 10:55:35;;;;;;;6.22;1.10;;;;;;;32.71;31.35;100522.81;3545899;82;25783;-86
2022/07/27 11:00:54;;;;;;;5.33;1.07;;;;;;;32.64;28.06;100526.99;3452226;84;99092;-80
2022/07/27 11:05:56;;;;;;;3.40;1.05;;;;;;;32.40;27.68;100522.59;3453532;84;99127;-85
2022/07/27 11:10:59;;;;;;;3.42;0.88;;;;;;;32.43;29.59;100517.25;3508275;83;98970;-85
2022/07/27 11:16:09;;;;;;;2.77;0.88;;;;;;;32.32;28.58;100515.13;3514252;82;99196;-87
2022/07/27 11:21:21;;;;;;;4.83;0.93;;;;;;;32.70;29.49;100512.72;3503725;82;103701;-86
2022/07/27 11:26:26;;;;;;;6.08;1.17;;;;;;;33.28;25.62;100507.05;3535098;82;99409;-85
2022/07/27 11:31:27;;;;;;;5.12;1.95;;;;;;;32.99;27.25;100517.09;3550017;81;98805;-85
2022/07/27 11:36:44;;;;;;;4.30;1.10;;;;;;;32.47;27.73;100513.48;3552851;82;99130;-84
2022/07/27 11:41:45;;;;;;;4.70;0.93;;;;;;;32.33;28.18;100517.45;3555082;83;99004;-83
2022/07/27 11:46:48;;;;;;;1.85;0.82;;;;;;;32.80;28.83;100510.47;3548619;83;98824;-84
2022/07/27 11:51:49;;;;;;;2.83;0.88;;;;;;;32.73;27.50;100510.23;3533616;82;99318;-84
2022/07/27 11:56:54;;;;;;;4.33;1.20;;;;;;;32.94;27.85;100512.84;3550069;82;99214;-85
2022/07/27 12:01:59;;;;;;;4.75;0.90;;;;;;;32.93;28.31;100523.49;3554747;82;25854;-87
2022/07/27 12:07:10;;;;;;;3.92;1.00;;;;;;;32.35;27.05;100531.15;3540577;82;98921;-86
2022/07/27 12:12:18;;;;;;;2.75;0.78;;;;;;;31.79;27.11;100525.48;3555392;82;97920;-85
2022/07/27 12:17:32;;;;;;;3.80;1.00;;;;;;;31.79;28.29;100533.39;3522116;81;99305;-85
2022/07/27 12:22:49;;;;;;;3.70;0.80;;;;;;;31.65;27.33;100532.22;3540337;82;99277;-84
2022/07/27 12:28:07;;;;;;;2.30;0.75;;;;;;;31.34;28.90;100523.29;3514969;83;98889;-86
2022/07/27 12:33:36;;;;;;;3.10;0.95;;;;;;;30.81;27.86;100523.49;3498101;83;98086;-88
2022/07/27 12:38:42;;;;;;;8.63;1.07;;;;;;;30.46;27.65;100530.19;3438354;83;98790;-86
2022/07/27 12:43:43;;;;;;;3.52;0.98;;;;;;;30.37;27.93;100533.28;3518212;83;26717;-84
2022/07/27 12:48:45;;;;;;;5.58;1.75;;;;;;;29.93;28.79;100522.31;3422433;85;98991;-85
2022/07/27 12:53:46;;;;;;;1.80;0.80;;;;;;;30.17;29.06;100522.71;3524111;82;98979;-87
2022/07/27 12:59:01;;;;;;;3.33;0.82;;;;;;;30.34;29.58;100530.69;3416132;85;99278;-85
2022/07/27 13:04:02;;;;;;;4.47;0.90;;;;;;;30.48;28.70;100516.27;3519231;82;99000;-84
2022/07/27 13:09:03;;;;;;;3.52;0.70;;;;;;;29.64;29.09;100516.31;3519803;83;98754;-87
2022/07/27 13:14:06;;;;;;;5.17;0.90;;;;;;;29.63;29.37;100510.52;3517895;83;98871;-84
2022/07/27 13:19:07;;;;;;;2.20;0.95;;;;;;;29.32;28.28;100516.83;3490323;83;98575;-85
2022/07/27 13:24:09;;;;;;;5.42;0.98;;;;;;;29.12;28.59;100519.74;3483001;83;99048;-87
2022/07/27 13:29:10;;;;;;;4.70;0.95;;;;;;;29.33;29.01;100520.59;3418758;84;99288;-86
2022/07/27 13:34:11;;;;;;;1.80;0.53;;;;;;;29.01;28.08;100519.02;3434146;84;98880;-83
2022/07/27 13:39:14;;;;;;;2.33;0.57;;;;;;;28.53;29.22;100516.55;3551618;82;99027;-82
2022/07/27 13:44:15;;;;;;;3.17;0.80;;;;;;;28.62;29.94;100499.41;3556265;83;99239;-84
2022/07/27 13:49:17;;;;;;;4.60;1.02;;;;;;;29.00;29.64;100511.01;3548712;83;98732;-85
2022/07/27 13:54:18;;;;;;;3.37;1.00;;;;;;;29.10;30.04;100515.22;3562917;82;99153;-84
2022/07/27 13:59:19;;;;;;;7.40;1.10;;;;;;;28.84;28.73;100521.50;3557025;81;98861;-85
2022/07/27 14:04:20;;;;;;;3.42;0.90;;;;;;;28.37;28.03;100517.72;3559998;81;98763;-85
2022/07/27 14:10:30;;;;;;;4.55;1.00;;;;;;;27.82;29.54;100519.83;3551071;82;99545;-83
2022/07/27 14:14:24;;;;;;;2.08;0.90;;;;;;;28.02;30.64;100508.54;3538160;82;99105;-86
2022/07/27 14:19:26;;;;;;;8.18;1.22;;;;;;;27.87;29.75;100524.78;3536483;82;98871;-86
2022/07/27 14:24:28;;;;;;;2.70;0.75;;;;;;;27.50;31.20;100522.27;3536672;83;99075;-84
2022/07/27 14:29:29;;;;;;;3.33;0.90;;;;;;;27.14;31.47;100516.38;3466107;83;98829;-83
2022/07/27 14:34:30;;;;;;;3.55;1.00;;;;;;;27.15;31.75;100518.58;3465553;83;98874;-82
2022/07/27 14:39:31;;;;;;;3.77;0.90;;;;;;;27.03;31.99;100520.42;3391097;85;98876;-84
2022/07/27 14:44:33;;;;;;;2.75;1.00;;;;;;;26.91;32.48;100515.09;3441900;84;98934;-85
2022/07/27 14:49:34;;;;;;;3.55;1.17;;;;;;;26.82;31.60;100509.52;3470978;83;98895;-83
2022/07/27 14:54:35;;;;;;;3.60;1.17;;;;;;;26.72;32.47;100519.34;3433223;84;98718;-83
2022/07/27 14:59:37;;;;;;;2.12;1.00;;;;;;;26.78;32.77;100508.92;3474527;83;99045;-86
2022/07/27 15:04:38;;;;;;;4.72;1.30;;;;;;;26.55;32.70;100518.25;3478489;83;99214;-86
2022/07/27 15:09:39;;;;;;;5.30;1.25;;;;;;;26.40;32.46;100508.92;3469975;83;98819;-87
2022/07/27 15:14:42;;;;;;;5.72;1.72;;;;;;;26.30;33.07;100509.64;3462258;83;99287;-83
2022/07/27 15:19:43;;;;;;;3.92;1.12;;;;;;;26.39;33.49;100507.38;3451132;83;98533;-81
2022/07/27 15:24:44;;;;;;;4.53;1.05;;;;;;;26.20;33.13;100513.79;3438994;84;98619;-82
2022/07/27 15:29:45;;;;;;;3.65;0.93;;;;;;;26.08;33.07;100506.98;3537218;82;99065;-82
2022/07/27 15:34:46;;;;;;;5.45;1.30;;;;;;;26.01;33.32;100507.34;3548782;82;98982;-84
2022/07/27 15:39:47;;;;;;;5.87;1.40;;;;;;;25.79;31.98;100506.22;3536040;82;98832;-84
2022/07/27 15:44:48;;;;;;;5.42;1.27;;;;;;;25.68;34.02;100513.02;3540714;82;99270;-84
2022/07/27 15:49:49;;;;;;;5.72;1.57;;;;;;;25.65;32.72;100513.95;3544341;83;98492;-84
2022/07/27 15:54:50;;;;;;;5.70;0.85;;;;;;;25.38;33.77;100521.12;3559475;81;98988;-83
2022/07/27 15:59:51;;;;;;;2.25;0.80;;;;;;;25.12;34.28;100517.10;3550913;82;98960;-83
2022/07/27 16:04:53;;;;;;;2.98;1.10;;;;;;;25.03;34.43;100517.76;3548968;83;99295;-83
2022/07/27 16:09:54;;;;;;;3.00;0.78;;;;;;;24.71;34.77;100521.25;3550067;82;98939;-83
2022/07/27 16:14:55;;;;;;;2.12;1.20;;;;;;;24.56;35.16;100526.72;3483247;83;98830;-85
2022/07/27 16:19:56;;;;;;;4.28;1.60;;;;;;;24.31;35.03;100525.61;3561880;82;98384;-83
2022/07/27 16:25:00;;;;;;;5.70;1.20;;;;;;;23.83;34.93;100527.87;3535663;81;98631;-84
2022/07/27 16:30:01;;;;;;;4.65;1.32;;;;;;;23.59;35.58;100532.45;3425738;85;98705;-85
2022/07/27 16:35:02;;;;;;;4.03;1.17;;;;;;;23.41;35.59;100525.98;3512695;83;99322;-84
2022/07/27 16:40:04;;;;;;;2.30;0.80;;;;;;;23.24;36.23;100517.03;3514448;83;98859;-81
2022/07/27 16:45:08;;;;;;;3.65;1.10;;;;;;;23.01;36.13;100521.72;3518602;83;98836;-83
2022/07/27 16:50:09;;;;;;;5.28;1.22;;;;;;;22.83;36.50;100518.01;3518491;82;98871;-82
2022/07/27 16:55:10;;;;;;;3.17;1.40;;;;;;;22.64;37.03;100515.70;3517883;83;34912;-81
2022/07/27 17:00:14;;;;;;;3.72;0.98;;;;;;;22.42;37.22;100514.87;3513449;83;99006;-82
2022/07/27 17:05:15;;;;;;;5.05;1.15;;;;;;;22.32;37.62;100514.63;3504347;83;98940;-83
2022/07/27 17:10:16;;;;;;;3.37;1.25;;;;;;;22.10;37.81;100516.61;3510593;83;98662;-83
2022/07/27 17:15:17;;;;;;;1.98;0.93;;;;;;;21.92;38.35;100524.84;3519848;83;98941;-82
2022/07/27 17:20:18;;;;;;;4.37;1.30;;;;;;;21.80;38.82;100522.06;3493904;83;99282;-81
2022/07/27 17:25:23;;;;;;;6.55;1.10;;;;;;;21.68;38.90;100516.62;3561886;82;36141;-81
2022/07/27 17:30:24;;;;;;;4.60;1.00;;;;;;;21.52;39.22;100515.95;3546303;81;98518;-81
2022/07/27 17:35:25;;;;;;;5.05;1.57;;;;;;;21.35;39.23;100525.67;3549771;82;99464;-81
2022/07/27 17:40:27;;;;;;;5.60;1.40;;;;;;;21.22;39.38;100519.30;3560286;82;99096;-81
2022/07/27 17:45:28;;;;;;;4.00;0.95;;;;;;;21.12;39.56;100516.99;3558993;81;99032;-81
2022/07/27 17:50:29;;;;;;;7.30;1.87;;;;;;;20.99;39.68;100525.97;3511882;82;98840;-81
2022/07/27 17:55:30;;;;;;;4.60;0.98;;;;;;;20.86;40.33;100525.14;3571216;82;34809;-82
2022/07/27 18:00:31;;;;;;;3.60;1.45;;;;;;;20.75;40.38;100532.26;3543427;81;98781;-81
2022/07/27 18:05:32;;;;;;;4.45;1.00;;;;;;;20.63;40.33;100531.02;3550876;82;98741;-82
2022/07/27 18:10:34;;;;;;;4.10;1.00;;;;;;;20.53;40.91;100533.48;3550571;81;99258;-81
2022/07/27 18:15:49;;;;;;;6.17;0.90;;;;;;;20.40;41.52;100536.85;3560279;82;98887;-82
2022/07/27 18:20:53;;;;;;;4.40;1.17;;;;;;;20.31;42.10;100544.28;3546307;82;98780;-82
2022/07/27 18:25:54;;;;;;;3.90;1.20;;;;;;;20.21;42.50;100548.93;3574618;81;25919;-82
2022/07/27 18:30:55;;;;;;;3.92;1.42;;;;;;;20.12;43.22;100555.74;3560639;82;98876;-82
2022/07/27 18:35:57;;;;;;;3.95;1.10;;;;;;;20.04;43.83;100557.73;3554680;82;98996;-82
2022/07/27 18:40:58;;;;;;;3.20;1.10;;;;;;;19.89;44.40;100556.54;3564690;81;99407;-82
2022/07/27 18:46:00;;;;;;;4.35;1.30;;;;;;;19.70;44.90;100554.59;3565627;81;99239;-82
2022/07/27 18:51:01;;;;;;;4.42;1.30;;;;;;;19.60;45.50;100562.02;3548553;82;99194;-83
2022/07/27 18:56:02;;;;;;;5.08;1.45;;;;;;;19.52;46.15;100565.41;3577649;81;34880;-83
2022/07/27 19:01:03;;;;;;;5.62;1.65;;;;;;;19.37;46.31;100566.34;3547767;82;98704;-81
2022/07/27 19:06:04;;;;;;;7.20;1.17;;;;;;;19.25;46.74;100573.20;3564420;82;98761;-81
2022/07/27 19:11:05;;;;;;;4.35;1.20;;;;;;;19.17;47.29;100584.28;3550092;81;98786;-81
2022/07/27 19:16:06;;;;;;;5.47;1.70;;;;;;;19.10;48.09;100589.43;3566612;82;99157;-82
2022/07/27 19:21:07;;;;;;;5.70;1.42;;;;;;;19.02;48.54;100596.36;3538549;81;98889;-81
2022/07/27 19:26:09;;;;;;;4.03;1.40;;;;;;;18.93;49.05;100600.34;3566237;81;99102;-81
2022/07/27 19:31:11;;;;;;;5.03;1.57;;;;;;;18.84;49.46;100603.50;3558970;82;98692;-81
2022/07/27 19:36:12;;;;;;;6.47;1.70;;;;;;;18.68;49.75;100607.60;3569334;81;99381;-82
2022/07/27 19:41:13;;;;;;;2.50;1.37;;;;;;;18.54;49.90;100611.44;3560084;81;98898;-81
2022/07/27 19:46:14;;;;;;;6.30;2.42;;;;;;;18.46;50.89;100621.75;3555192;82;98980;-81
2022/07/27 19:51:15;;;;;;;6.58;1.85;;;;;;;18.38;51.27;100622.51;3549370;82;98839;-81
2022/07/27 19:56:17;;;;;;;7.75;1.85;;;;;;;18.14;51.59;100608.34;3564757;81;99149;-81
2022/07/27 20:01:18;;;;;;;3.98;1.42;;;;;;;18.17;51.73;100623.42;3554284;81;98467;-81
2022/07/27 20:06:19;;;;;;;5.05;1.37;;;;;;;18.06;52.02;100622.22;3553086;81;98895;-81
2022/07/27 20:11:20;;;;;;;6.83;1.30;;;;;;;17.79;53.00;100622.85;3563374;81;99217;-82
2022/07/27 20:16:21;;;;;;;3.20;1.50;;;;;;;17.79;53.00;100622.85;3564022;82;99218;-81
2022/07/27 20:21:23;;;;;;;3.02;1.47;;;;;;;17.73;53.19;100641.23;3545009;81;98909;-80
2022/07/27 20:26:24;;;;;;;6.33;1.65;;;;;;;17.65;53.77;100641.14;3551139;82;98829;-80
2022/07/27 20:31:26;;;;;;;6.42;1.47;;;;;;;17.59;53.87;100650.37;3533311;82;98632;-80
2022/07/27 20:36:27;;;;;;;9.55;2.08;;;;;;;17.47;54.32;100655.91;3553445;81;98716;-80
2022/07/27 20:41:28;;;;;;;3.95;1.57;;;;;;;17.41;54.67;100655.39;3544826;82;98697;-80
2022/07/27 20:46:29;;;;;;;9.10;1.82;;;;;;;17.32;54.82;100655.07;3541153;81;98835;-81
2022/07/27 20:51:30;;;;;;;4.58;1.20;;;;;;;17.23;55.38;100671.50;3536057;82;99218;-81
2022/07/27 20:56:32;;;;;;;4.20;1.20;;;;;;;17.16;55.53;100668.81;3551739;82;98846;-81
2022/07/27 21:01:33;;;;;;;9.93;1.80;;;;;;;17.09;55.88;100671.06;3531204;82;98660;-81
2022/07/27 21:06:34;;;;;;;8.13;2.00;;;;;;;17.01;56.25;100675.11;3551534;82;98700;-82
2022/07/27 21:11:35;;;;;;;7.53;2.10;;;;;;;16.95;56.55;100671.83;3529206;82;99107;-81
2022/07/27 21:16:36;;;;;;;5.35;2.27;;;;;;;16.88;56.64;100677.44;3542306;82;99155;-81
2022/07/27 21:21:37;;;;;;;5.30;2.05;;;;;;;16.79;57.03;100693.22;3537997;83;99248;-80
2022/07/27 21:26:38;;;;;;;7.58;2.00;;;;;;;16.73;57.22;100684.37;3540505;82;98837;-80
2022/07/27 21:31:40;;;;;;;4.53;1.82;;;;;;;16.64;57.49;100675.13;3551550;82;26748;-81
2022/07/27 21:36:43;;;;;;;7.20;1.50;;;;;;;16.60;57.68;100687.45;3536871;82;99120;-80
2022/07/27 21:41:44;;;;;;;8.08;2.80;;;;;;;16.53;57.98;100689.72;3520365;82;98671;-81
2022/07/27 21:46:47;;;;;;;4.92;1.75;;;;;;;16.44;58.10;100697.72;3531188;82;99184;-81
2022/07/27 21:51:48;;;;;;;9.45;2.47;;;;;;;16.37;58.49;100698.34;3545709;82;99242;-81
2022/07/27 21:56:50;;;;;;;6.60;1.80;;;;;;;16.31;58.76;100699.98;3534859;82;99344;-82
2022/07/27 22:01:51;;;;;;;9.68;1.95;;;;;;;16.25;59.00;100714.13;3518124;82;32505;-81
2022/07/27 22:06:52;;;;;;;8.15;2.12;;;;;;;16.18;59.23;100717.73;3538084;82;105332;-82
2022/07/27 22:11:54;;;;;;;7.58;2.02;;;;;;;16.15;59.58;100724.12;3544058;82;99342;-82
2022/07/27 22:16:55;;;;;;;6.53;1.65;;;;;;;16.08;59.74;100731.70;3537264;82;99340;-82
2022/07/27 22:21:56;;;;;;;7.00;2.35;;;;;;;16.01;59.92;100729.75;3539396;82;99280;-81
2022/07/27 22:26:57;;;;;;;7.10;2.08;;;;;;;15.97;60.26;100733.75;3537650;82;98789;-81
2022/07/27 22:31:58;;;;;;;8.53;2.20;;;;;;;15.93;60.35;100726.84;3583614;81;31132;-81
2022/07/27 22:36:59;;;;;;;7.00;2.58;;;;;;;15.87;60.67;100728.43;3568018;81;98767;-81
2022/07/27 22:42:02;;;;;;;5.80;1.93;;;;;;;15.80;60.75;100734.03;3580177;81;98982;-81
2022/07/27 22:47:04;;;;;;;4.75;1.72;;;;;;;15.73;60.88;100737.44;3574221;81;99266;-81
2022/07/27 22:52:06;;;;;;;4.97;1.55;;;;;;;15.66;61.31;100744.41;3579380;81;99491;-81
2022/07/27 22:57:07;;;;;;;8.35;2.02;;;;;;;15.65;61.59;100749.77;3574498;81;99306;-81
2022/07/27 23:02:08;;;;;;;5.95;2.30;;;;;;;15.63;61.92;100752.14;3572389;81;98766;-81
2022/07/27 23:07:09;;;;;;;6.58;1.95;;;;;;;15.63;62.09;100755.72;3577337;81;99298;-81
2022/07/27 23:12:10;;;;;;;7.20;1.87;;;;;;;15.56;61.93;100754.95;3575361;81;98684;-81
2022/07/27 23:17:11;;;;;;;7.45;2.30;;;;;;;15.54;62.26;100754.58;3556608;82;98925;-81
2022/07/27 23:22:12;;;;;;;5.58;1.72;;;;;;;15.51;62.47;100758.14;3585736;81;98921;-81
2022/07/27 23:27:14;;;;;;;5.47;1.87;;;;;;;15.47;62.77;100760.93;3571267;81;98883;-81
2022/07/27 23:32:14;;;;;;;6.50;2.27;;;;;;;15.46;62.92;100761.33;3556534;82;99262;-81